createdAt,value
2018-05-09T00:04:26.865Z,94500
2018-05-09T00:09:21.391Z,94496
2018-05-09T00:14:15.711Z,94494
2018-05-09T00:19:10.383Z,94471
2018-05-09T00:24:04.950Z,94484
2018-05-09T00:28:59.743Z,94479
2018-05-09T00:33:54.293Z,94501
2018-05-09T00:38:49.016Z,94501
2018-05-09T00:43:44.030Z,94500
2018-05-09T00:48:38.711Z,94494
2018-05-09T00:53:33.594Z,94484
2018-05-09T00:58:27.618Z,94499
2018-05-09T01:03:22.200Z,94502
2018-05-09T01:08:16.762Z,94508
2018-05-09T01:13:11.549Z,94506
2018-05-09T01:18:06.114Z,94501
2018-05-09T01:23:00.313Z,94503
2018-05-09T01:27:55.463Z,94508
2018-05-09T01:32:50.081Z,94505
2018-05-09T01:37:44.586Z,94506
2018-05-09T01:42:39.019Z,94509
2018-05-09T01:47:33.427Z,94508
2018-05-09T01:52:27.859Z,94504
2018-05-09T01:57:22.224Z,94501
2018-05-09T02:02:16.741Z,94517
2018-05-09T02:07:11.770Z,94508
2018-05-09T02:12:06.441Z,94503
2018-05-09T02:17:00.989Z,94508
2018-05-09T02:21:56.089Z,94511
2018-05-09T02:26:50.264Z,94508
2018-05-09T02:31:45.182Z,94507
2018-05-09T02:36:39.565Z,94497
2018-05-09T02:41:34.393Z,94489
2018-05-09T02:46:28.884Z,94484
2018-05-09T02:51:23.455Z,94492
2018-05-09T02:56:17.846Z,94486
2018-05-09T03:01:12.204Z,94488
2018-05-09T03:06:07.050Z,94491
2018-05-09T03:11:01.388Z,94488
2018-05-09T03:15:56.442Z,94490
2018-05-09T03:20:50.708Z,94498
2018-05-09T03:25:45.067Z,94504
2018-05-09T03:30:39.527Z,94511
2018-05-09T03:35:34.330Z,94508
2018-05-09T03:40:28.843Z,94513
2018-05-09T03:45:23.118Z,94519
2018-05-09T03:50:17.544Z,94517
2018-05-09T03:55:12.004Z,94516
2018-05-09T04:00:06.627Z,94517
2018-05-09T04:05:00.605Z,94524
2018-05-09T04:09:55.038Z,94522
2018-05-09T04:14:49.504Z,94525
2018-05-09T04:19:44.214Z,94527
2018-05-09T04:24:39.097Z,94537
2018-05-09T04:29:33.486Z,94536
2018-05-09T04:34:28.629Z,94549
2018-05-09T04:39:22.681Z,94538
2018-05-09T04:44:16.580Z,94546
2018-05-09T04:49:11.292Z,94538
2018-05-09T04:54:05.579Z,94531
2018-05-09T04:59:00.331Z,94532
2018-05-09T05:03:55.064Z,94532
2018-05-09T05:08:49.385Z,94534
2018-05-09T05:13:44.264Z,94535
2018-05-09T05:18:38.601Z,94530
2018-05-09T05:23:33.050Z,94522
2018-05-09T05:28:27.989Z,94532
2018-05-09T05:33:22.233Z,94529
2018-05-09T05:38:17.144Z,94531
2018-05-09T05:43:11.274Z,94529
2018-05-09T05:48:05.851Z,94532
2018-05-09T05:53:00.207Z,94535
2018-05-09T05:57:54.492Z,94538
2018-05-09T06:02:48.970Z,94536
2018-05-09T06:07:44.263Z,94536
2018-05-09T06:12:38.972Z,94539
2018-05-09T06:17:33.612Z,94530
2018-05-09T06:22:28.077Z,94523
2018-05-09T06:27:22.608Z,94531
2018-05-09T06:32:17.603Z,94516
2018-05-09T06:37:12.546Z,94516
2018-05-09T06:42:07.268Z,94531
2018-05-09T06:47:04.790Z,94528
2018-05-09T06:51:59.096Z,94509
2018-05-09T06:56:53.789Z,94521
2018-05-09T07:01:48.705Z,94522
2018-05-09T07:06:44.342Z,94523
2018-05-09T07:11:38.517Z,94518
2018-05-09T07:16:33.171Z,94528
2018-05-09T07:21:28.335Z,94533
2018-05-09T07:26:23.032Z,94520
2018-05-09T07:31:17.936Z,94526
2018-05-09T07:36:12.765Z,94514
2018-05-09T07:41:07.045Z,94523
2018-05-09T07:46:01.729Z,94498
2018-05-09T07:50:55.991Z,94500
2018-05-09T07:55:50.834Z,94509
2018-05-09T08:00:45.561Z,94510
2018-05-09T08:05:40.125Z,94505
2018-05-09T08:10:34.854Z,94501
2018-05-09T08:15:29.104Z,94508
2018-05-09T08:20:24.090Z,94499
2018-05-09T08:25:19.221Z,94493
2018-05-09T08:30:14.017Z,94495
2018-05-09T08:35:09.101Z,94493
2018-05-09T08:40:03.703Z,94478
2018-05-09T08:44:58.611Z,94480
2018-05-09T08:49:51.499Z,94476
2018-05-09T08:54:46.013Z,94477
2018-05-09T08:59:40.847Z,94503
2018-05-09T09:04:35.617Z,94474
2018-05-09T09:09:30.009Z,94475
2018-05-09T09:14:24.926Z,94477
2018-05-09T09:19:19.182Z,94479
2018-05-09T09:24:14.039Z,94471
2018-05-09T09:29:08.520Z,94465
2018-05-09T09:34:03.156Z,94462
2018-05-09T09:38:57.158Z,94454
2018-05-09T09:43:52.297Z,94457
2018-05-09T09:48:47.731Z,94444
2018-05-09T09:53:42.473Z,94437
2018-05-09T09:58:37.483Z,94436
2018-05-09T10:03:32.173Z,94436
2018-05-09T10:08:26.886Z,94433
2018-05-09T10:13:21.985Z,94424
2018-05-09T10:18:16.961Z,94434
2018-05-09T10:23:11.968Z,94419
2018-05-09T10:28:05.855Z,94412
2018-05-09T10:33:00.414Z,94419
2018-05-09T10:37:53.109Z,94416
2018-05-09T10:42:47.975Z,94394
2018-05-09T10:47:42.925Z,94399
2018-05-09T10:52:37.125Z,94401
2018-05-09T10:57:31.618Z,94393
2018-05-09T11:02:25.216Z,94389
2018-05-09T11:07:19.601Z,94390
2018-05-09T11:12:14.654Z,94384
2018-05-09T11:17:10.082Z,94361
2018-05-09T11:22:04.209Z,94370
2018-05-09T11:26:58.668Z,94370
2018-05-09T11:31:53.201Z,94363
2018-05-09T11:36:48.663Z,94371
2018-05-09T11:41:43.322Z,94355
2018-05-09T11:46:37.922Z,94355
2018-05-09T11:51:32.762Z,94349
2018-05-09T11:56:27.979Z,94341
2018-05-09T12:01:22.356Z,94327
2018-05-09T12:06:17.565Z,94326
2018-05-09T12:11:11.901Z,94320
2018-05-09T12:16:06.379Z,94321
2018-05-09T12:21:01.797Z,94317
2018-05-09T12:25:56.467Z,94318
2018-05-09T12:30:51.156Z,94301
2018-05-09T12:35:46.116Z,94306
2018-05-09T12:40:41.232Z,94301
2018-05-09T12:45:36.013Z,94296
2018-05-09T12:50:31.152Z,94294
2018-05-09T12:55:25.611Z,94296
2018-05-09T13:00:20.379Z,94297
2018-05-09T13:05:15.062Z,94288
2018-05-09T13:10:09.873Z,94276
2018-05-09T13:15:04.790Z,94274
2018-05-09T13:19:59.192Z,94264
2018-05-09T13:24:53.904Z,94272
2018-05-09T13:29:48.672Z,94267
2018-05-09T13:34:43.623Z,94266
2018-05-09T13:39:38.503Z,94255
2018-05-09T13:44:33.614Z,94261
2018-05-09T13:49:29.350Z,94260
2018-05-09T13:54:23.893Z,94258
2018-05-09T13:59:17.678Z,94241
2018-05-09T14:04:11.860Z,94251
2018-05-09T14:09:04.468Z,94216
2018-05-09T14:13:58.691Z,94251
2018-05-09T14:18:53.648Z,94255
2018-05-09T14:23:48.848Z,94250
2018-05-09T14:28:43.972Z,94246
2018-05-09T14:33:38.746Z,94243
2018-05-09T14:38:33.290Z,94241
2018-05-09T14:43:27.695Z,94240
2018-05-09T14:48:22.193Z,94223
2018-05-09T14:53:17.009Z,94247
2018-05-09T14:58:11.022Z,94251
2018-05-09T15:03:06.041Z,94253
2018-05-09T15:08:00.448Z,94259
2018-05-09T15:12:55.020Z,94262
2018-05-09T15:17:49.629Z,94259
2018-05-09T15:22:44.152Z,94261
2018-05-09T15:27:38.666Z,94252
2018-05-09T15:32:33.622Z,94269
2018-05-09T15:37:28.221Z,94261
2018-05-09T15:42:22.885Z,94259
2018-05-09T15:47:17.407Z,94262
2018-05-09T15:52:12.486Z,94269
2018-05-09T15:57:06.762Z,94255
2018-05-09T16:02:01.454Z,94282
2018-05-09T16:06:55.898Z,94288
2018-05-09T16:11:50.696Z,94290
2018-05-09T16:16:45.556Z,94299
2018-05-09T16:21:40.570Z,94305
2018-05-09T16:26:35.884Z,94311
2018-05-09T16:31:30.637Z,94314
2018-05-09T16:36:25.727Z,94312
2018-05-09T16:41:20.452Z,94320
2018-05-09T16:46:15.033Z,94323
2018-05-09T16:51:10.118Z,94323
2018-05-09T16:56:05.087Z,94338
2018-05-09T17:00:59.735Z,94354
2018-05-09T17:05:54.393Z,94355
2018-05-09T17:10:48.806Z,94365
2018-05-09T17:15:43.672Z,94373
2018-05-09T17:20:38.247Z,94374
2018-05-09T17:25:33.053Z,94381
2018-05-09T17:30:27.511Z,94386
2018-05-09T17:35:21.742Z,94389
2018-05-09T17:40:16.887Z,94395
2018-05-09T17:45:11.959Z,94393
2018-05-09T17:50:06.118Z,94410
2018-05-09T17:55:01.270Z,94415
2018-05-09T17:59:55.634Z,94416
2018-05-09T18:04:49.880Z,94420
2018-05-09T18:09:44.654Z,94416
2018-05-09T18:14:39.206Z,94420
2018-05-09T18:19:34.199Z,94429
2018-05-09T18:24:28.466Z,94433
2018-05-09T18:29:23.226Z,94439
2018-05-09T18:34:18.085Z,94452
2018-05-09T18:39:12.955Z,94451
2018-05-09T18:44:08.077Z,94452
2018-05-09T18:49:02.184Z,94457
2018-05-09T18:53:57.290Z,94456
2018-05-09T18:58:51.559Z,94456
2018-05-09T19:03:45.974Z,94447
2018-05-09T19:08:41.066Z,94447
2018-05-09T19:13:35.955Z,94445
2018-05-09T19:18:30.102Z,94455
2018-05-09T19:23:25.108Z,94453
2018-05-09T19:28:19.598Z,94458
2018-05-09T19:33:14.158Z,94464
2018-05-09T19:38:09.127Z,94463
2018-05-09T19:43:04.212Z,94459
2018-05-09T19:47:58.823Z,94469
2018-05-09T19:52:52.979Z,94475
2018-05-09T19:57:47.504Z,94473
2018-05-09T20:02:42.511Z,94482
2018-05-09T20:07:37.027Z,94481
2018-05-09T20:12:32.142Z,94487
2018-05-09T20:17:26.247Z,94488
2018-05-09T20:22:20.728Z,94496
2018-05-09T20:27:20.115Z,94496
2018-05-09T20:32:13.557Z,94492
2018-05-09T20:37:07.569Z,94480
2018-05-09T20:42:02.848Z,94479
2018-05-09T20:46:57.122Z,94481
2018-05-09T20:51:51.663Z,94484
2018-05-09T20:56:46.286Z,94477
2018-05-09T21:01:40.761Z,94479
2018-05-09T21:06:35.425Z,94486
2018-05-09T21:11:29.811Z,94494
2018-05-09T21:16:24.757Z,94498
2018-05-09T21:21:19.001Z,94502
2018-05-09T21:26:13.471Z,94515
2018-05-09T21:31:07.864Z,94492
2018-05-09T21:36:03.083Z,94520
2018-05-09T21:40:57.289Z,94509
2018-05-09T21:45:51.808Z,94503
2018-05-09T21:50:46.664Z,94500
2018-05-09T21:55:41.366Z,94505
2018-05-09T22:00:36.069Z,94502
2018-05-09T22:05:30.425Z,94496
2018-05-09T22:10:25.437Z,94495
2018-05-09T22:15:20.014Z,94492
2018-05-09T22:20:14.940Z,94498
2018-05-09T22:25:09.246Z,94492
2018-05-09T22:30:03.813Z,94483
2018-05-09T22:34:58.859Z,94475
2018-05-09T22:39:53.180Z,94485
2018-05-09T22:44:48.281Z,94485
2018-05-09T22:49:42.708Z,94492
2018-05-09T22:54:37.329Z,94502
2018-05-09T22:59:32.373Z,94505
2018-05-09T23:04:26.414Z,94515
2018-05-09T23:09:21.287Z,94511
2018-05-09T23:14:15.627Z,94492
2018-05-09T23:19:10.293Z,94517
2018-05-09T23:24:04.868Z,94520
2018-05-09T23:28:59.464Z,94529
2018-05-09T23:33:53.941Z,94530
2018-05-09T23:38:48.647Z,94527
2018-05-09T23:43:42.941Z,94524
2018-05-09T23:48:37.784Z,94525
2018-05-09T23:53:32.229Z,94518
2018-05-09T23:58:26.808Z,94512
